createdAt,value
2019-03-26T00:00:56.077Z,1007.26
2019-03-26T00:01:56.105Z,1007.23
2019-03-26T00:02:56.130Z,1007.23
2019-03-26T00:04:05.721Z,1007.20
2019-03-26T00:04:56.185Z,1007.24
2019-03-26T00:05:56.212Z,1007.27
2019-03-26T00:06:56.238Z,1007.25
2019-03-26T00:07:56.267Z,1007.36
2019-03-26T00:08:56.295Z,1007.41
2019-03-26T00:09:56.326Z,1007.37
2019-03-26T00:10:56.348Z,1007.38
2019-03-26T00:11:56.375Z,1007.37
2019-03-26T00:12:56.404Z,1007.40
2019-03-26T00:13:57.804Z,1007.39
2019-03-26T00:14:56.455Z,1007.35
2019-03-26T00:15:56.483Z,1007.43
2019-03-26T00:16:56.512Z,1007.43
2019-03-26T00:17:56.540Z,1007.42
2019-03-26T00:18:56.571Z,1007.36
2019-03-26T00:19:56.591Z,1007.41
2019-03-26T00:20:56.619Z,1007.31
2019-03-26T00:21:56.646Z,1007.32
2019-03-26T00:22:56.672Z,1007.32
2019-03-26T00:23:56.699Z,1007.30
2019-03-26T00:24:56.727Z,1007.36
2019-03-26T00:25:56.755Z,1007.31
2019-03-26T00:26:56.780Z,1007.31
2019-03-26T00:27:56.808Z,1007.34
2019-03-26T00:28:56.836Z,1007.32
2019-03-26T00:29:56.863Z,1007.33
2019-03-26T00:30:56.890Z,1007.35
2019-03-26T00:31:56.918Z,1007.35
2019-03-26T00:32:56.942Z,1007.38
2019-03-26T00:33:56.970Z,1007.40
2019-03-26T00:34:56.996Z,1007.42
2019-03-26T00:35:57.025Z,1007.43
2019-03-26T00:36:57.052Z,1007.42
2019-03-26T00:37:57.077Z,1007.41
2019-03-26T00:38:57.104Z,1007.40
2019-03-26T00:39:57.132Z,1007.41
2019-03-26T00:40:57.159Z,1007.47
2019-03-26T00:41:57.185Z,1007.43
2019-03-26T00:42:57.212Z,1007.47
2019-03-26T00:43:57.241Z,1007.47
2019-03-26T00:44:57.266Z,1007.45
2019-03-26T00:45:57.295Z,1007.44
2019-03-26T00:46:57.319Z,1007.46
2019-03-26T00:47:57.345Z,1007.43
2019-03-26T00:48:57.373Z,1007.48
2019-03-26T00:49:57.402Z,1007.51
2019-03-26T00:50:57.428Z,1007.50
2019-03-26T00:51:57.454Z,1007.46
2019-03-26T00:52:57.481Z,1007.49
2019-03-26T00:53:57.508Z,1007.54
2019-03-26T00:54:57.612Z,1007.51
2019-03-26T00:55:57.562Z,1007.53
2019-03-26T00:56:57.588Z,1007.53
2019-03-26T00:57:57.615Z,1007.56
2019-03-26T00:58:57.643Z,1007.57
2019-03-26T00:59:57.669Z,1007.60
2019-03-26T01:00:57.696Z,1007.65
2019-03-26T01:01:57.725Z,1007.65
2019-03-26T01:02:57.749Z,1007.63
2019-03-26T01:03:57.778Z,1007.63
2019-03-26T01:04:57.803Z,1007.62
2019-03-26T01:05:57.830Z,1007.65
2019-03-26T01:06:57.857Z,1007.69
2019-03-26T01:07:57.886Z,1007.69
2019-03-26T01:08:57.911Z,1007.69
2019-03-26T01:09:58.087Z,1007.76
2019-03-26T01:10:57.963Z,1007.77
2019-03-26T01:11:57.990Z,1007.80
2019-03-26T01:12:58.017Z,1007.83
2019-03-26T01:13:58.044Z,1007.81
2019-03-26T01:14:58.073Z,1007.81
2019-03-26T01:15:58.099Z,1007.82
2019-03-26T01:16:58.126Z,1007.82
2019-03-26T01:17:58.152Z,1007.83
2019-03-26T01:18:58.178Z,1007.82
2019-03-26T01:19:58.204Z,1007.86
2019-03-26T01:20:58.233Z,1007.86
2019-03-26T01:21:58.259Z,1007.87
2019-03-26T01:22:58.366Z,1007.90
2019-03-26T01:23:58.313Z,1007.86
2019-03-26T01:24:58.346Z,1007.85
2019-03-26T01:25:58.367Z,1007.78
2019-03-26T01:26:58.393Z,1007.80
2019-03-26T01:27:58.419Z,1007.81
2019-03-26T01:28:58.447Z,1007.79
2019-03-26T01:29:58.473Z,1007.78
2019-03-26T01:30:58.500Z,1007.81
2019-03-26T01:31:58.527Z,1007.81
2019-03-26T01:32:58.572Z,1007.78
2019-03-26T01:33:58.582Z,1007.81
2019-03-26T01:34:58.607Z,1007.83
2019-03-26T01:35:58.634Z,1007.79
2019-03-26T01:36:58.662Z,1007.82
2019-03-26T01:37:58.689Z,1007.81
2019-03-26T01:38:58.716Z,1007.84
2019-03-26T01:39:58.743Z,1007.87
2019-03-26T01:40:58.770Z,1007.91
2019-03-26T01:41:58.796Z,1007.91
2019-03-26T01:42:58.825Z,1007.88
2019-03-26T01:43:58.850Z,1007.95
2019-03-26T01:44:58.881Z,1007.91
2019-03-26T01:45:58.907Z,1007.94
2019-03-26T01:46:58.933Z,1007.96
2019-03-26T01:47:58.957Z,1007.92
2019-03-26T01:48:58.984Z,1007.92
2019-03-26T01:49:59.011Z,1007.99
2019-03-26T01:50:59.037Z,1008.01
2019-03-26T01:51:59.068Z,1007.99
2019-03-26T01:52:59.091Z,1008.02
2019-03-26T01:53:59.120Z,1008.00
2019-03-26T01:54:59.145Z,1008.03
2019-03-26T01:55:59.172Z,1008.02
2019-03-26T01:56:59.204Z,1008.01
2019-03-26T01:57:59.226Z,1008.04
2019-03-26T01:58:59.253Z,1008.02
2019-03-26T01:59:59.280Z,1007.96
2019-03-26T02:00:59.607Z,1007.98
2019-03-26T02:01:59.340Z,1007.99
2019-03-26T02:02:59.361Z,1007.93
2019-03-26T02:03:59.390Z,1007.96
2019-03-26T02:05:00.588Z,1007.93
2019-03-26T02:05:59.443Z,1007.96
2019-03-26T02:06:59.470Z,1008.00
2019-03-26T02:07:59.497Z,1007.97
2019-03-26T02:08:59.525Z,1008.00
2019-03-26T02:09:59.550Z,1007.98
2019-03-26T02:10:59.576Z,1007.97
2019-03-26T02:11:59.604Z,1007.98
2019-03-26T02:12:59.632Z,1007.98
2019-03-26T02:13:59.658Z,1007.97
2019-03-26T02:14:59.684Z,1007.94
2019-03-26T02:15:59.711Z,1007.97
2019-03-26T02:16:59.739Z,1008.01
2019-03-26T02:17:59.773Z,1008.00
2019-03-26T02:18:59.792Z,1008.06
2019-03-26T02:19:59.820Z,1008.07
2019-03-26T02:20:59.847Z,1008.05
2019-03-26T02:21:59.874Z,1008.05
2019-03-26T02:22:59.900Z,1008.05
2019-03-26T02:23:59.927Z,1008.06
2019-03-26T02:24:59.960Z,1008.09
2019-03-26T02:25:59.982Z,1008.09
2019-03-26T02:27:00.008Z,1008.12
2019-03-26T02:28:00.035Z,1008.13
2019-03-26T02:29:00.062Z,1008.14
2019-03-26T02:30:00.177Z,1008.14
2019-03-26T02:31:00.120Z,1008.17
2019-03-26T02:32:00.143Z,1008.18
2019-03-26T02:33:00.171Z,1008.16
2019-03-26T02:34:00.198Z,1008.21
2019-03-26T02:35:16.237Z,1008.14
2019-03-26T02:36:00.250Z,1008.20
2019-03-26T02:37:00.277Z,1008.22
2019-03-26T02:38:00.305Z,1008.24
2019-03-26T02:39:00.337Z,1008.24
2019-03-26T02:40:00.714Z,1008.21
2019-03-26T02:41:00.385Z,1008.24
2019-03-26T02:42:00.416Z,1008.20
2019-03-26T02:43:00.449Z,1008.24
2019-03-26T02:44:00.466Z,1008.24
2019-03-26T02:45:00.539Z,1008.20
2019-03-26T02:46:00.521Z,1008.22
2019-03-26T02:47:00.546Z,1008.23
2019-03-26T02:48:00.581Z,1008.23
2019-03-26T02:49:00.604Z,1008.25
2019-03-26T02:50:00.812Z,1008.29
2019-03-26T02:51:00.655Z,1008.25
2019-03-26T02:52:00.682Z,1008.26
2019-03-26T02:53:00.717Z,1008.24
2019-03-26T02:54:00.736Z,1008.25
2019-03-26T02:55:00.766Z,1008.28
2019-03-26T02:56:00.790Z,1008.28
2019-03-26T02:57:00.821Z,1008.27
2019-03-26T02:58:00.845Z,1008.25
2019-03-26T02:59:00.875Z,1008.33
2019-03-26T03:00:00.899Z,1008.31
2019-03-26T03:01:00.926Z,1008.33
2019-03-26T03:02:00.953Z,1008.34
2019-03-26T03:03:00.980Z,1008.35
2019-03-26T03:04:01.007Z,1008.37
2019-03-26T03:05:01.034Z,1008.37
2019-03-26T03:06:01.061Z,1008.37
2019-03-26T03:07:01.089Z,1008.41
2019-03-26T03:08:01.114Z,1008.36
2019-03-26T03:09:01.146Z,1008.36
2019-03-26T03:10:01.170Z,1008.39
2019-03-26T03:11:01.195Z,1008.34
2019-03-26T03:12:01.241Z,1008.37
2019-03-26T03:13:01.273Z,1008.36
2019-03-26T03:14:01.280Z,1008.36
2019-03-26T03:15:01.308Z,1008.33
2019-03-26T03:16:01.330Z,1008.40
2019-03-26T03:17:01.362Z,1008.39
2019-03-26T03:18:01.390Z,1008.40
2019-03-26T03:19:01.413Z,1008.37
2019-03-26T03:20:01.442Z,1008.41
2019-03-26T03:21:01.466Z,1008.40
2019-03-26T03:22:01.493Z,1008.41
2019-03-26T03:23:01.522Z,1008.35
2019-03-26T03:24:01.546Z,1008.36
2019-03-26T03:25:01.578Z,1008.41
2019-03-26T03:26:01.666Z,1008.38
2019-03-26T03:27:01.636Z,1008.41
2019-03-26T03:28:01.655Z,1008.42
2019-03-26T03:29:01.684Z,1008.44
2019-03-26T03:30:01.734Z,1008.48
2019-03-26T03:31:01.746Z,1008.45
2019-03-26T03:32:01.763Z,1008.41
2019-03-26T03:33:01.792Z,1008.45
2019-03-26T03:34:01.819Z,1008.50
2019-03-26T03:35:01.844Z,1008.51
2019-03-26T03:36:01.871Z,1008.49
2019-03-26T03:37:01.978Z,1008.51
2019-03-26T03:38:01.926Z,1008.50
2019-03-26T03:39:01.954Z,1008.52
2019-03-26T03:40:01.988Z,1008.54
2019-03-26T03:41:02.008Z,1008.52
2019-03-26T03:42:02.050Z,1008.59
2019-03-26T03:43:02.060Z,1008.60
2019-03-26T03:44:02.087Z,1008.59
2019-03-26T03:45:02.117Z,1008.60
2019-03-26T03:46:02.151Z,1008.65
2019-03-26T03:47:02.171Z,1008.70
2019-03-26T03:48:02.198Z,1008.68
2019-03-26T03:49:02.223Z,1008.69
2019-03-26T03:50:02.249Z,1008.67
2019-03-26T03:51:02.275Z,1008.66
2019-03-26T03:52:02.310Z,1008.62
2019-03-26T03:53:02.433Z,1008.64
2019-03-26T03:54:02.358Z,1008.66
2019-03-26T03:55:02.405Z,1008.68
2019-03-26T03:56:02.421Z,1008.69
2019-03-26T03:57:02.437Z,1008.71
2019-03-26T03:58:02.465Z,1008.64
2019-03-26T03:59:02.499Z,1008.68
2019-03-26T04:00:02.529Z,1008.69
2019-03-26T04:01:02.545Z,1008.81
2019-03-26T04:02:02.574Z,1008.82
2019-03-26T04:03:02.598Z,1008.85
2019-03-26T04:04:02.635Z,1008.88
2019-03-26T04:05:02.654Z,1008.89
2019-03-26T04:06:09.441Z,1008.90
2019-03-26T04:07:02.705Z,1008.88
2019-03-26T04:08:02.754Z,1008.91
2019-03-26T04:09:02.768Z,1008.88
2019-03-26T04:10:02.788Z,1008.92
2019-03-26T04:11:02.813Z,1008.88
2019-03-26T04:12:02.840Z,1008.87
2019-03-26T04:13:02.882Z,1008.85
2019-03-26T04:14:02.896Z,1008.87
2019-03-26T04:15:02.930Z,1008.85
2019-03-26T04:16:02.956Z,1008.87
2019-03-26T04:17:02.989Z,1008.87
2019-03-26T04:18:03.005Z,1008.83
2019-03-26T04:19:03.029Z,1008.82
2019-03-26T04:20:03.076Z,1008.85
2019-03-26T04:21:03.081Z,1008.83
2019-03-26T04:22:03.118Z,1008.88
2019-03-26T04:23:03.140Z,1008.82
2019-03-26T04:24:03.165Z,1008.83
2019-03-26T04:25:03.187Z,1008.86
2019-03-26T04:26:03.217Z,1008.86
2019-03-26T04:27:03.249Z,1008.91
2019-03-26T04:28:03.267Z,1008.93
2019-03-26T04:29:03.297Z,1008.98
2019-03-26T04:30:03.328Z,1008.95
2019-03-26T04:31:03.371Z,1008.95
2019-03-26T04:32:03.375Z,1009.00
2019-03-26T04:33:03.412Z,1009.04
2019-03-26T04:34:03.430Z,1009.02
2019-03-26T04:35:03.455Z,1009.05
2019-03-26T04:36:03.483Z,1009.09
2019-03-26T04:37:03.508Z,1009.04
2019-03-26T04:38:03.535Z,1009.09
2019-03-26T04:39:03.562Z,1009.12
2019-03-26T04:40:03.590Z,1009.11
2019-03-26T04:41:03.615Z,1009.14
2019-03-26T04:42:03.641Z,1009.10
2019-03-26T04:43:03.669Z,1009.11
2019-03-26T04:44:03.698Z,1009.10
2019-03-26T04:45:03.721Z,1009.12
2019-03-26T04:46:03.753Z,1009.19
2019-03-26T04:47:03.776Z,1009.22
2019-03-26T04:48:03.801Z,1009.23
2019-03-26T04:49:03.833Z,1009.17
2019-03-26T04:50:03.856Z,1009.22
2019-03-26T04:51:03.884Z,1009.16
2019-03-26T04:52:03.910Z,1009.14
2019-03-26T04:53:03.938Z,1009.15
2019-03-26T04:54:03.963Z,1009.11
2019-03-26T04:55:03.989Z,1009.12
2019-03-26T04:56:04.016Z,1009.16
2019-03-26T04:57:04.042Z,1009.14
2019-03-26T04:58:04.070Z,1009.14
2019-03-26T04:59:04.097Z,1009.13
2019-03-26T05:00:04.125Z,1009.12
2019-03-26T05:01:04.150Z,1009.16
2019-03-26T05:02:04.181Z,1009.13
2019-03-26T05:03:04.212Z,1009.16
2019-03-26T05:04:04.231Z,1009.14
2019-03-26T05:05:04.258Z,1009.19
2019-03-26T05:06:04.290Z,1009.25
2019-03-26T05:07:04.315Z,1009.26
2019-03-26T05:08:04.339Z,1009.28
2019-03-26T05:09:04.367Z,1009.28
2019-03-26T05:10:04.416Z,1009.25
2019-03-26T05:11:04.418Z,1009.37
2019-03-26T05:12:04.446Z,1009.35
2019-03-26T05:13:04.478Z,1009.38
2019-03-26T05:14:04.500Z,1009.37
2019-03-26T05:15:04.527Z,1009.34
2019-03-26T05:16:04.553Z,1009.35
2019-03-26T05:17:04.581Z,1009.36
2019-03-26T05:18:04.608Z,1009.32
2019-03-26T05:19:04.634Z,1009.34
2019-03-26T05:20:04.660Z,1009.28
2019-03-26T05:21:04.688Z,1009.23
2019-03-26T05:22:04.715Z,1009.26
2019-03-26T05:23:04.741Z,1009.26
2019-03-26T05:24:04.769Z,1009.31
2019-03-26T05:25:04.799Z,1009.31
2019-03-26T05:26:04.822Z,1009.31
2019-03-26T05:27:04.849Z,1009.31
2019-03-26T05:28:04.875Z,1009.31
2019-03-26T05:29:04.908Z,1009.36
2019-03-26T05:30:04.931Z,1009.36
2019-03-26T05:31:04.955Z,1009.37
2019-03-26T05:32:04.983Z,1009.39
2019-03-26T05:33:05.011Z,1009.34
2019-03-26T05:34:05.038Z,1009.35
2019-03-26T05:35:05.065Z,1009.38
2019-03-26T05:36:05.091Z,1009.34
2019-03-26T05:37:05.128Z,1009.38
2019-03-26T05:38:05.145Z,1009.37
2019-03-26T05:39:05.173Z,1009.40
2019-03-26T05:40:05.199Z,1009.43
2019-03-26T05:41:05.227Z,1009.46
2019-03-26T05:42:05.269Z,1009.43
2019-03-26T05:43:05.282Z,1009.43
2019-03-26T05:44:05.349Z,1009.45
2019-03-26T05:45:05.333Z,1009.42
2019-03-26T05:46:05.361Z,1009.45
2019-03-26T05:47:05.389Z,1009.46
2019-03-26T05:48:05.418Z,1009.49
2019-03-26T05:49:05.442Z,1009.46
2019-03-26T05:50:05.470Z,1009.47
2019-03-26T05:51:05.496Z,1009.50
2019-03-26T05:52:05.522Z,1009.41
2019-03-26T05:53:05.552Z,1009.46
2019-03-26T05:54:05.580Z,1009.50
2019-03-26T05:55:05.604Z,1009.48
2019-03-26T05:56:05.637Z,1009.49
2019-03-26T05:57:05.670Z,1009.47
2019-03-26T05:58:05.687Z,1009.52
2019-03-26T05:59:05.712Z,1009.55
2019-03-26T06:00:05.742Z,1009.57
2019-03-26T06:01:05.766Z,1009.52
2019-03-26T06:02:14.311Z,1009.53
2019-03-26T06:03:05.820Z,1009.50
2019-03-26T06:04:05.847Z,1009.48
2019-03-26T06:05:05.959Z,1009.49
2019-03-26T06:06:05.903Z,1009.50
2019-03-26T06:07:05.929Z,1009.50
2019-03-26T06:08:05.957Z,1009.53
2019-03-26T06:09:05.986Z,1009.52
2019-03-26T06:10:06.017Z,1009.60
2019-03-26T06:11:06.038Z,1009.63
2019-03-26T06:12:06.064Z,1009.65
2019-03-26T06:13:06.096Z,1009.72
2019-03-26T06:14:06.119Z,1009.73
2019-03-26T06:15:06.146Z,1009.70
2019-03-26T06:16:06.177Z,1009.68
2019-03-26T06:17:06.200Z,1009.68
2019-03-26T06:18:07.931Z,1009.68
2019-03-26T06:19:06.252Z,1009.65
2019-03-26T06:20:06.355Z,1009.69
2019-03-26T06:21:06.311Z,1009.72
2019-03-26T06:22:06.338Z,1009.82
2019-03-26T06:23:06.363Z,1009.80
2019-03-26T06:24:06.391Z,1009.79
2019-03-26T06:25:06.419Z,1009.79
2019-03-26T06:26:06.447Z,1009.81
2019-03-26T06:27:06.472Z,1009.84
2019-03-26T06:28:06.499Z,1009.87
2019-03-26T06:29:06.530Z,1009.88
2019-03-26T06:30:06.556Z,1009.91
2019-03-26T06:31:06.581Z,1009.93
2019-03-26T06:32:06.609Z,1009.93
2019-03-26T06:33:06.635Z,1009.94
2019-03-26T06:34:06.664Z,1009.92
2019-03-26T06:35:06.689Z,1009.99
2019-03-26T06:36:06.716Z,1009.96
2019-03-26T06:37:17.356Z,1010.01
2019-03-26T06:38:06.771Z,1010.03
2019-03-26T06:39:06.798Z,1010.03
2019-03-26T06:40:06.828Z,1010.05
2019-03-26T06:41:06.853Z,1010.07
2019-03-26T06:42:06.911Z,1010.10
2019-03-26T06:43:06.911Z,1010.09
2019-03-26T06:44:06.938Z,1010.11
2019-03-26T06:45:06.963Z,1010.00
2019-03-26T06:46:06.991Z,1010.00
2019-03-26T06:47:07.018Z,1010.01
2019-03-26T06:48:07.045Z,1010.02
2019-03-26T06:49:07.073Z,1010.03
2019-03-26T06:50:07.101Z,1010.04
2019-03-26T06:51:07.127Z,1010.08
2019-03-26T06:52:07.156Z,1010.12
2019-03-26T06:53:07.186Z,1010.13
2019-03-26T06:54:07.213Z,1010.08
2019-03-26T06:55:07.245Z,1010.11
2019-03-26T06:56:07.267Z,1010.10
2019-03-26T06:57:07.295Z,1010.10
2019-03-26T06:58:07.323Z,1010.16
2019-03-26T06:59:07.349Z,1010.17
2019-03-26T07:00:07.529Z,1010.16
2019-03-26T07:01:07.406Z,1010.20
2019-03-26T07:02:07.434Z,1010.17
2019-03-26T07:03:07.462Z,1010.21
2019-03-26T07:04:07.489Z,1010.27
2019-03-26T07:05:07.520Z,1010.24
2019-03-26T07:06:07.546Z,1010.24
2019-03-26T07:07:07.578Z,1010.20
2019-03-26T07:08:07.602Z,1010.23
2019-03-26T07:09:07.630Z,1010.20
2019-03-26T07:10:07.659Z,1010.24
2019-03-26T07:11:07.686Z,1010.27
2019-03-26T07:12:07.991Z,1010.20
2019-03-26T07:13:07.744Z,1010.19
2019-03-26T07:14:07.772Z,1010.21
2019-03-26T07:15:07.803Z,1010.22
2019-03-26T07:16:07.828Z,1010.30
2019-03-26T07:17:07.860Z,1010.34
2019-03-26T07:18:07.886Z,1010.33
2019-03-26T07:19:07.914Z,1010.30
2019-03-26T07:20:07.945Z,1010.34
2019-03-26T07:21:07.972Z,1010.33
2019-03-26T07:22:07.999Z,1010.37
2019-03-26T07:23:08.536Z,1010.35
2019-03-26T07:24:08.054Z,1010.37
2019-03-26T07:25:08.085Z,1010.32
2019-03-26T07:26:08.113Z,1010.33
2019-03-26T07:27:08.142Z,1010.38
2019-03-26T07:28:08.168Z,1010.33
2019-03-26T07:29:08.208Z,1010.39
2019-03-26T07:30:08.227Z,1010.38
2019-03-26T07:31:08.256Z,1010.39
2019-03-26T07:32:08.284Z,1010.39
2019-03-26T07:33:08.315Z,1010.34
2019-03-26T07:34:08.342Z,1010.27
2019-03-26T07:35:08.372Z,1010.29
2019-03-26T07:36:08.397Z,1010.31
2019-03-26T07:37:08.427Z,1010.26
2019-03-26T07:38:08.458Z,1010.27
2019-03-26T07:39:08.483Z,1010.33
2019-03-26T07:40:08.511Z,1010.35
2019-03-26T07:41:08.540Z,1010.43
2019-03-26T07:42:08.570Z,1010.45
2019-03-26T07:43:08.599Z,1010.45
2019-03-26T07:44:08.625Z,1010.50
2019-03-26T07:45:08.660Z,1010.52
2019-03-26T07:46:08.683Z,1010.53
2019-03-26T07:47:08.715Z,1010.58
2019-03-26T07:48:08.740Z,1010.57
2019-03-26T07:49:08.769Z,1010.57
2019-03-26T07:50:08.801Z,1010.48
2019-03-26T07:51:08.827Z,1010.51
2019-03-26T07:52:08.854Z,1010.52
2019-03-26T07:53:08.885Z,1010.49
2019-03-26T07:54:08.914Z,1010.52
2019-03-26T07:55:08.993Z,1010.52
2019-03-26T07:56:08.972Z,1010.54
2019-03-26T07:57:09.000Z,1010.53
2019-03-26T07:58:09.029Z,1010.50
2019-03-26T07:59:09.058Z,1010.57
2019-03-26T08:00:09.087Z,1010.51
2019-03-26T08:01:09.116Z,1010.51
2019-03-26T08:02:09.145Z,1010.53
2019-03-26T08:03:09.174Z,1010.53
2019-03-26T08:04:12.356Z,1010.53
2019-03-26T08:05:09.235Z,1010.53
2019-03-26T08:06:09.262Z,1010.56
2019-03-26T08:07:09.291Z,1010.55
2019-03-26T08:08:09.372Z,1010.58
2019-03-26T08:09:09.374Z,1010.61
2019-03-26T08:10:09.385Z,1010.60
2019-03-26T08:11:09.433Z,1010.58
2019-03-26T08:12:09.465Z,1010.56
2019-03-26T08:13:09.467Z,1010.54
2019-03-26T08:14:09.622Z,1010.50
2019-03-26T08:15:09.560Z,1010.50
2019-03-26T08:16:09.565Z,1010.52
2019-03-26T08:17:09.588Z,1010.51
2019-03-26T08:18:09.617Z,1010.50
2019-03-26T08:19:09.651Z,1010.46
2019-03-26T08:20:12.470Z,1010.44
2019-03-26T08:21:09.707Z,1010.41
2019-03-26T08:22:09.737Z,1010.37
2019-03-26T08:23:09.766Z,1010.39
2019-03-26T08:24:09.795Z,1010.38
2019-03-26T08:25:09.824Z,1010.36
2019-03-26T08:26:09.855Z,1010.33
2019-03-26T08:27:09.884Z,1010.32
2019-03-26T08:28:09.914Z,1010.33
2019-03-26T08:29:09.945Z,1010.36
2019-03-26T08:30:09.978Z,1010.40
2019-03-26T08:31:10.004Z,1010.42
2019-03-26T08:32:10.036Z,1010.38
2019-03-26T08:33:10.065Z,1010.41
2019-03-26T08:34:10.095Z,1010.40
2019-03-26T08:35:10.128Z,1010.46
2019-03-26T08:36:10.154Z,1010.42
2019-03-26T08:37:10.191Z,1010.47
2019-03-26T08:38:12.878Z,1010.43
2019-03-26T08:39:10.244Z,1010.49
2019-03-26T08:40:10.284Z,1010.51
2019-03-26T08:41:10.305Z,1010.53
2019-03-26T08:42:10.335Z,1010.58
2019-03-26T08:43:10.366Z,1010.61
2019-03-26T08:44:10.394Z,1010.61
2019-03-26T08:45:10.424Z,1010.60
2019-03-26T08:46:10.455Z,1010.63
2019-03-26T08:47:10.486Z,1010.64
2019-03-26T08:48:10.515Z,1010.65
2019-03-26T08:49:10.545Z,1010.72
2019-03-26T08:50:10.583Z,1010.77
2019-03-26T08:51:10.604Z,1010.73
2019-03-26T08:52:10.638Z,1010.75
2019-03-26T08:53:10.666Z,1010.74
2019-03-26T08:54:10.696Z,1010.78
2019-03-26T08:55:10.726Z,1010.75
2019-03-26T08:56:10.756Z,1010.82
2019-03-26T08:57:10.785Z,1010.76
2019-03-26T08:58:10.818Z,1010.83
2019-03-26T08:59:10.848Z,1010.91
2019-03-26T09:00:10.877Z,1010.89
2019-03-26T09:01:10.908Z,1010.91
2019-03-26T09:02:10.937Z,1010.93
2019-03-26T09:03:10.967Z,1010.95
2019-03-26T09:04:10.998Z,1010.89
2019-03-26T09:05:11.028Z,1010.94
2019-03-26T09:06:11.058Z,1010.95
2019-03-26T09:07:11.211Z,1010.96
2019-03-26T09:08:11.116Z,1011.06
2019-03-26T09:09:11.147Z,1011.05
2019-03-26T09:10:11.215Z,1011.02
2019-03-26T09:11:11.207Z,1011.06
2019-03-26T09:12:11.237Z,1011.07
2019-03-26T09:13:11.270Z,1011.07
2019-03-26T09:14:11.302Z,1011.01
2019-03-26T09:15:14.196Z,1011.05
2019-03-26T09:16:11.359Z,1010.99
2019-03-26T09:17:11.396Z,1011.00
2019-03-26T09:18:11.421Z,1010.98
2019-03-26T09:19:11.450Z,1010.99
2019-03-26T09:20:11.484Z,1010.96
2019-03-26T09:21:11.514Z,1010.98
2019-03-26T09:22:11.544Z,1011.02
2019-03-26T09:23:12.474Z,1011.01
2019-03-26T09:24:11.605Z,1011.01
2019-03-26T09:25:11.634Z,1010.99
2019-03-26T09:26:11.664Z,1011.00
2019-03-26T09:27:11.696Z,1011.06
2019-03-26T09:28:11.725Z,1011.03
2019-03-26T09:29:11.756Z,1011.02
2019-03-26T09:30:11.787Z,1010.98
2019-03-26T09:31:11.816Z,1010.96
2019-03-26T09:32:11.853Z,1010.98
2019-03-26T09:33:11.878Z,1010.96
2019-03-26T09:34:11.910Z,1010.96
2019-03-26T09:35:11.941Z,1010.99
2019-03-26T09:36:11.971Z,1011.01
2019-03-26T09:37:12.000Z,1011.03
2019-03-26T09:38:12.032Z,1011.06
2019-03-26T09:39:12.063Z,1011.08
2019-03-26T09:40:12.096Z,1011.13
2019-03-26T09:41:12.127Z,1011.15
2019-03-26T09:42:12.156Z,1011.10
2019-03-26T09:43:12.187Z,1011.09
2019-03-26T09:44:12.218Z,1011.07
2019-03-26T09:45:12.249Z,1011.10
2019-03-26T09:46:12.333Z,1011.15
2019-03-26T09:47:16.521Z,1011.16
2019-03-26T09:48:12.344Z,1011.10
2019-03-26T09:49:12.375Z,1011.14
2019-03-26T09:50:12.406Z,1011.13
2019-03-26T09:51:12.438Z,1011.15
2019-03-26T09:52:12.468Z,1011.15
2019-03-26T09:53:12.500Z,1011.18
2019-03-26T09:54:12.533Z,1011.92
2019-03-26T09:57:05.190Z,1011.14
2019-03-26T09:58:05.200Z,1011.11
2019-03-26T09:59:05.234Z,1011.10
2019-03-26T10:00:05.265Z,1011.08
2019-03-26T10:01:05.305Z,1011.07
2019-03-26T10:02:05.334Z,1011.03
2019-03-26T10:03:05.363Z,1011.03
2019-03-26T10:04:05.825Z,1011.02
2019-03-26T10:05:05.430Z,1010.99
2019-03-26T10:06:05.463Z,1011.70
2019-03-26T10:07:05.496Z,1011.21
2019-03-26T10:08:05.530Z,1011.23
2019-03-26T10:09:05.562Z,1011.69
2019-03-26T10:10:06.532Z,1012.15
2019-03-26T10:11:05.628Z,1012.09
2019-03-26T10:12:05.662Z,1012.08
2019-03-26T10:13:05.696Z,1011.88
2019-03-26T10:14:05.731Z,1012.21
2019-03-26T10:15:05.766Z,1011.87
2019-03-26T10:16:05.803Z,1011.65
2019-03-26T10:17:05.837Z,1011.37
2019-03-26T10:19:05.911Z,1011.30
2019-03-26T10:20:05.950Z,1011.08
2019-03-26T10:21:06.015Z,1010.94
2019-03-26T10:22:06.859Z,1010.93
2019-03-26T10:23:09.427Z,1010.97
2019-03-26T10:25:06.356Z,1011.05
2019-03-26T10:26:06.169Z,1011.10
2019-03-26T10:27:06.410Z,1011.05
2019-03-26T10:28:06.262Z,1011.05
2019-03-26T10:29:19.016Z,1011.02
2019-03-26T10:30:06.314Z,1010.98
2019-03-26T10:31:06.351Z,1010.97
2019-03-26T10:32:06.387Z,1010.97
2019-03-26T10:33:06.422Z,1011.01
2019-03-26T10:34:06.458Z,1010.96
2019-03-26T10:35:06.496Z,1010.94
2019-03-26T10:36:06.527Z,1010.96
2019-03-26T10:37:06.563Z,1011.00
2019-03-26T10:38:06.597Z,1011.01
2019-03-26T10:39:06.631Z,1010.98
2019-03-26T10:40:06.665Z,1010.98
2019-03-26T10:41:06.701Z,1010.96
2019-03-26T10:42:07.049Z,1010.96
2019-03-26T10:43:06.768Z,1010.95
2019-03-26T10:44:06.821Z,1010.96
2019-03-26T10:45:06.840Z,1010.94
2019-03-26T10:46:06.867Z,1010.93
2019-03-26T10:47:06.901Z,1010.93
2019-03-26T10:48:06.934Z,1010.99
2019-03-26T10:49:06.966Z,1011.00
2019-03-26T10:50:07.004Z,1011.02
2019-03-26T10:51:07.035Z,1011.00
2019-03-26T10:52:07.067Z,1010.99
2019-03-26T10:53:07.098Z,1011.00
2019-03-26T10:54:07.130Z,1011.01
2019-03-26T10:55:07.163Z,1010.99
2019-03-26T10:56:07.196Z,1010.97
2019-03-26T10:57:07.229Z,1010.97
2019-03-26T10:58:07.261Z,1010.94
2019-03-26T10:59:07.295Z,1010.99
2019-03-26T11:00:07.323Z,1011.03
2019-03-26T11:01:07.357Z,1010.97
2019-03-26T11:02:07.392Z,1010.98
2019-03-26T11:03:07.423Z,1010.99
2019-03-26T11:04:07.916Z,1010.96
2019-03-26T11:05:07.486Z,1010.96
2019-03-26T11:06:07.518Z,1010.99
2019-03-26T11:07:07.550Z,1010.99
2019-03-26T11:08:07.581Z,1010.94
2019-03-26T11:09:20.104Z,1010.91
2019-03-26T11:10:07.647Z,1010.96
2019-03-26T11:11:07.679Z,1010.97
2019-03-26T11:12:07.713Z,1010.96
2019-03-26T11:13:07.745Z,1010.99
2019-03-26T11:14:07.781Z,1011.24
2019-03-26T11:15:07.814Z,1010.98
2019-03-26T11:16:07.843Z,1010.99
2019-03-26T11:17:07.878Z,1010.96
2019-03-26T11:18:07.909Z,1011.04
2019-03-26T11:19:07.943Z,1010.95
2019-03-26T11:20:07.986Z,1011.00
2019-03-26T11:21:08.005Z,1011.14
2019-03-26T11:22:08.039Z,1011.03
2019-03-26T11:23:08.071Z,1011.00
2019-03-26T11:24:08.104Z,1010.96
2019-03-26T11:25:08.139Z,1010.99
2019-03-26T11:26:08.173Z,1010.98
2019-03-26T11:27:08.205Z,1011.02
2019-03-26T11:28:08.239Z,1011.01
2019-03-26T11:29:08.272Z,1011.04
2019-03-26T11:30:08.307Z,1010.94
2019-03-26T11:31:08.339Z,1011.07
2019-03-26T11:32:08.375Z,1011.17
2019-03-26T11:33:08.411Z,1011.05
2019-03-26T11:34:08.442Z,1011.06
2019-03-26T11:35:08.527Z,1011.10
2019-03-26T11:36:08.510Z,1012.59
2019-03-26T11:37:08.544Z,1011.21
2019-03-26T11:38:08.579Z,1010.93
2019-03-26T11:39:08.615Z,1010.87
2019-03-26T11:40:08.648Z,1010.88
2019-03-26T11:41:08.691Z,1010.89
2019-03-26T11:42:08.720Z,1010.94
2019-03-26T11:43:08.760Z,1011.00
2019-03-26T11:44:08.791Z,1010.89
2019-03-26T11:45:08.826Z,1010.84
2019-03-26T11:46:08.863Z,1010.85
2019-03-26T11:47:08.899Z,1010.90
2019-03-26T11:48:08.961Z,1010.86
2019-03-26T11:49:08.989Z,1010.87
2019-03-26T11:50:09.030Z,1010.75
2019-03-26T11:51:09.041Z,1010.63
2019-03-26T11:53:09.111Z,1010.64
2019-03-26T11:54:09.145Z,1010.60
2019-03-26T11:55:09.192Z,1010.60
2019-03-26T11:56:09.216Z,1010.60
2019-03-26T11:57:09.251Z,1010.68
2019-03-26T11:58:09.286Z,1010.71
2019-03-26T11:59:09.320Z,1010.68
2019-03-26T12:00:09.354Z,1011.42
2019-03-26T12:01:09.389Z,1012.33
2019-03-26T12:02:09.442Z,1010.80
2019-03-26T12:03:09.459Z,1012.35
2019-03-26T12:04:09.498Z,1012.32
2019-03-26T12:05:10.744Z,1012.31
2019-03-26T12:06:12.188Z,1012.36
2019-03-26T12:07:09.829Z,1012.33
2019-03-26T12:08:09.662Z,1012.29
2019-03-26T12:09:10.006Z,1012.30
2019-03-26T12:10:09.715Z,1012.23
2019-03-26T12:11:09.755Z,1012.23